»·PEaware :: N525SA KOTH-KACV

N525SA :: KOTH-KACV

FLIGHT INFORMATION

Flight Status: Arrived
Operator: Privately registered:
United States
More flights under this callsign
Pilot: Utku A. (15598)
Aircraft: SOCATA TBM-900
(TBM9)
More flights by this aircraft type
Origin: KOTH North Bend Mun
United States
Destination: KACV Arcata
United States
More flights between these airports :: More routes between these airports
Route: OTH6 LEDGE V27 CULDU
File this flight plan on PilotEdge
Remarks:
Altitude:
(Current/Filed)
16,000ft
Speed:
(Current/Filed)
250kts
Departed: 26-Oct-18 07:12 PM
Arrived: 26-Oct-18 08:20 PM
Distance/Time
Traveled:
147nm/1:08
Distance/Time
To Go:
Arrived

Flight Plot

Page will automatically refresh every two minutes.

Flight plan parsing failed; only flown route is shown


Map Options




Map Legend


Flown Route
Filed Route
Departure Airport
Arrival Airport
Navaid (VOR, NDB)
Fix

Horizontal Profiles

Position Reports

Time Latitude Longitude Heading Altitude Ground
Speed
26-Oct-18 18:38 43.417639 -124.247059 151 22ft 0kts
26-Oct-18 18:39 43.417639 -124.247059 151 22ft 0kts
26-Oct-18 18:40 43.417639 -124.247059 151 22ft 0kts
26-Oct-18 18:41 43.417639 -124.247059 151 22ft 0kts
26-Oct-18 18:42 43.417639 -124.247059 151 22ft 0kts
26-Oct-18 18:43 43.417639 -124.247059 151 22ft 0kts
26-Oct-18 18:44 43.417639 -124.247060 151 22ft 0kts
26-Oct-18 18:45 43.417639 -124.247060 151 22ft 0kts
26-Oct-18 18:46 43.417639 -124.247060 151 22ft 0kts
26-Oct-18 18:47 43.417639 -124.247060 151 22ft 0kts
26-Oct-18 18:48 43.417639 -124.247060 151 22ft 0kts
26-Oct-18 18:49 43.417639 -124.247060 151 22ft 0kts
26-Oct-18 18:50 43.417639 -124.247060 151 22ft 0kts
26-Oct-18 18:51 43.417639 -124.247060 151 22ft 0kts
26-Oct-18 18:52 43.417639 -124.247060 151 22ft 0kts
26-Oct-18 18:53 43.417639 -124.247060 151 22ft 0kts
26-Oct-18 18:54 43.417639 -124.247060 151 22ft 0kts
26-Oct-18 18:55 43.417639 -124.247060 151 22ft 0kts
26-Oct-18 18:56 43.417639 -124.247060 151 22ft 0kts
26-Oct-18 18:57 43.417639 -124.247060 151 22ft 0kts
26-Oct-18 18:58 43.417639 -124.247060 151 22ft 0kts
26-Oct-18 18:59 43.417639 -124.247060 151 22ft 0kts
26-Oct-18 19:00 43.417639 -124.247060 151 22ft 0kts
26-Oct-18 19:01 43.417639 -124.247060 151 22ft 0kts
26-Oct-18 19:02 43.417639 -124.247060 151 22ft 0kts
26-Oct-18 19:03 43.417639 -124.247060 151 22ft 0kts
26-Oct-18 19:04 43.417639 -124.247060 151 22ft 0kts
26-Oct-18 19:05 43.417639 -124.247059 151 22ft 0kts
26-Oct-18 19:06 43.417643 -124.246700 45 22ft 4kts
26-Oct-18 19:07 43.418926 -124.247207 250 17ft 7kts
26-Oct-18 19:08 43.417830 -124.249955 241 25ft 9kts
26-Oct-18 19:09 43.416756 -124.252561 240 25ft 8kts
26-Oct-18 19:10 43.414895 -124.257123 240 11ft 11kts
26-Oct-18 19:11 43.413902 -124.259633 272 6ft 3kts
26-Oct-18 19:12 43.413920 -124.259722 297 6ft 0kts
26-Oct-18 19:13 43.414575 -124.260405 332 5ft 9kts
26-Oct-18 19:14 43.417946 -124.252735 59 22ft 109kts
26-Oct-18 19:15 43.437576 -124.245910 252 1764ft 118kts
26-Oct-18 19:16 43.418664 -124.284213 234 3622ft 125kts
26-Oct-18 19:17 43.430043 -124.306546 64 5222ft 159kts
26-Oct-18 19:18 43.423128 -124.250704 108 6967ft 153kts
26-Oct-18 19:19 43.414704 -124.192888 92 8491ft 162kts
26-Oct-18 19:20 43.386674 -124.170187 188 9991ft 127kts
26-Oct-18 19:21 43.351212 -124.171433 190 11818ft 126kts
26-Oct-18 19:22 43.316591 -124.172983 192 13526ft 126kts
26-Oct-18 19:23 43.281587 -124.174570 193 15088ft 127kts
26-Oct-18 19:24 43.244274 -124.176419 192 16032ft 161kts
26-Oct-18 19:25 43.191897 -124.178724 189 16011ft 208kts
26-Oct-18 19:26 43.132328 -124.181496 189 15999ft 222kts
26-Oct-18 19:27 43.070003 -124.184385 189 15996ft 226kts
26-Oct-18 19:28 43.006847 -124.187221 189 15990ft 228kts
26-Oct-18 19:29 42.943335 -124.190033 188 15979ft 230kts
26-Oct-18 19:30 42.879962 -124.193093 188 15977ft 237kts
26-Oct-18 19:31 42.811567 -124.196922 188 15976ft 253kts
26-Oct-18 19:32 42.740490 -124.200655 187 15973ft 258kts
26-Oct-18 19:33 42.668667 -124.204045 187 15972ft 260kts
26-Oct-18 19:34 42.596645 -124.207280 187 15971ft 260kts
26-Oct-18 19:35 42.525136 -124.210419 187 15970ft 260kts
26-Oct-18 19:36 42.452828 -124.213581 187 15970ft 260kts
26-Oct-18 19:37 42.380929 -124.216720 187 15970ft 260kts
26-Oct-18 19:38 42.308877 -124.219860 187 15969ft 260kts
26-Oct-18 19:39 42.236804 -124.223006 187 15969ft 260kts
26-Oct-18 19:40 42.165193 -124.226076 187 15960ft 256kts
26-Oct-18 19:41 42.094698 -124.228849 187 15953ft 252kts
26-Oct-18 19:42 42.024775 -124.231767 187 15948ft 250kts
26-Oct-18 19:43 41.955486 -124.234760 187 15943ft 250kts
26-Oct-18 19:44 41.887071 -124.237725 187 15945ft 250kts
26-Oct-18 19:45 41.818280 -124.240706 187 15945ft 250kts
26-Oct-18 19:46 41.748122 -124.242210 185 15945ft 252kts
26-Oct-18 19:47 41.678181 -124.241788 185 15944ft 251kts
26-Oct-18 19:48 41.608071 -124.241399 185 15943ft 252kts
26-Oct-18 19:49 41.538191 -124.240955 185 15943ft 251kts
26-Oct-18 19:50 41.468417 -124.240820 186 15362ft 257kts
26-Oct-18 19:51 41.397864 -124.239711 184 13829ft 241kts
26-Oct-18 19:52 41.334275 -124.238654 184 11770ft 221kts
26-Oct-18 19:53 41.273923 -124.238094 184 9740ft 218kts
26-Oct-18 19:54 41.213402 -124.237776 183 7738ft 219kts
26-Oct-18 19:55 41.152591 -124.236956 186 5980ft 213kts
26-Oct-18 19:56 41.093759 -124.237246 182 6009ft 230kts
26-Oct-18 19:57 41.026676 -124.237811 181 5995ft 250kts
26-Oct-18 19:58 40.956550 -124.237755 181 5991ft 254kts
26-Oct-18 19:59 40.887132 -124.237405 180 5990ft 254kts
26-Oct-18 20:00 40.816471 -124.237004 180 5990ft 254kts
26-Oct-18 20:01 40.745751 -124.236582 180 5989ft 254kts
26-Oct-18 20:02 40.676395 -124.225351 155 5986ft 240kts
26-Oct-18 20:03 40.673081 -124.169094 54 5949ft 163kts
26-Oct-18 20:04 40.684069 -124.110933 79 5690ft 164kts
26-Oct-18 20:05 40.690277 -124.051819 80 5689ft 161kts
26-Oct-18 20:06 40.696296 -123.993330 80 5690ft 161kts
26-Oct-18 20:07 40.701595 -123.941773 78 5672ft 127kts
26-Oct-18 20:08 40.689719 -123.903059 150 5699ft 132kts
26-Oct-18 20:09 40.659107 -123.879815 152 5712ft 136kts
26-Oct-18 20:10 40.649149 -123.907572 341 5692ft 132kts
26-Oct-18 20:11 40.682248 -123.910973 333 5684ft 118kts
26-Oct-18 20:12 40.713089 -123.931266 334 5700ft 131kts
26-Oct-18 20:13 40.746637 -123.953454 334 5098ft 138kts
26-Oct-18 20:14 40.780874 -123.976176 333 4359ft 135kts
26-Oct-18 20:15 40.812876 -123.997517 332 3654ft 121kts
26-Oct-18 20:16 40.842336 -124.017172 333 3042ft 120kts
26-Oct-18 20:17 40.871938 -124.036938 335 2437ft 116kts
26-Oct-18 20:18 40.898720 -124.054893 334 1871ft 106kts
26-Oct-18 20:19 40.923786 -124.071756 333 1281ft 99kts
26-Oct-18 20:20 40.948171 -124.088164 333 759ft 98kts
26-Oct-18 20:21 40.971919 -124.104058 333 237ft 91kts
26-Oct-18 20:22 40.981503 -124.111426 242 225ft 9kts
26-Oct-18 20:23 40.978636 -124.109841 152 225ft 14kts
26-Oct-18 20:24 40.974829 -124.108530 178 225ft 12kts
26-Oct-18 20:25 40.973515 -124.107028 152 225ft 9kts
26-Oct-18 20:26 40.972996 -124.107395 334 225ft 0kts
26-Oct-18 20:27 40.973001 -124.107398 332 225ft 0kts
26-Oct-18 20:28 40.973001 -124.107398 332 225ft 0kts
26-Oct-18 20:29 40.973001 -124.107398 332 225ft 0kts
26-Oct-18 20:30 40.973001 -124.107398 332 225ft 0kts
26-Oct-18 20:31 40.973001 -124.107398 332 225ft 0kts
26-Oct-18 20:32 40.973001 -124.107398 332 225ft 0kts
26-Oct-18 20:33 40.973001 -124.107398 332 225ft 0kts
26-Oct-18 20:34 40.973001 -124.107398 332 225ft 0kts
26-Oct-18 20:35 40.973001 -124.107398 332 225ft 0kts

Navigation Log

Ident Type
Flight plan parsing failed, navigation log unavailable